createdAt,value
2018-04-11T00:01:44.298Z,1.60
2018-04-11T00:04:11.732Z,1.60
2018-04-11T00:06:39.192Z,1.73
2018-04-11T00:09:06.783Z,2.23
2018-04-11T00:11:34.265Z,1.27
2018-04-11T00:14:01.754Z,1.30
2018-04-11T00:16:29.214Z,2.57
2018-04-11T00:18:56.670Z,2.37
2018-04-11T00:21:24.187Z,1.60
2018-04-11T00:23:51.781Z,2.00
2018-04-11T00:26:19.225Z,1.53
2018-04-11T00:28:46.687Z,2.00
2018-04-11T00:31:14.178Z,2.20
2018-04-11T00:33:42.866Z,1.30
2018-04-11T00:36:10.302Z,3.10
2018-04-11T00:38:37.752Z,2.07
2018-04-11T00:41:05.263Z,2.47
2018-04-11T00:43:32.765Z,2.73
2018-04-11T00:46:00.354Z,1.67
2018-04-11T00:48:27.796Z,2.47
2018-04-11T00:50:55.251Z,2.70
2018-04-11T00:53:26.538Z,2.30
2018-04-11T00:55:53.997Z,3.17
2018-04-11T00:58:21.444Z,2.73
2018-04-11T01:00:48.895Z,2.93
2018-04-11T01:03:16.390Z,2.47
2018-04-11T01:05:43.839Z,3.40
2018-04-11T01:08:11.598Z,3.03
2018-04-11T01:10:39.040Z,3.60
2018-04-11T01:13:06.496Z,3.43
2018-04-11T01:15:33.969Z,3.13
2018-04-11T01:18:01.417Z,2.60
2018-04-11T01:20:28.868Z,3.17
2018-04-11T01:22:56.340Z,2.60
2018-04-11T01:25:23.804Z,2.47
2018-04-11T01:27:51.253Z,2.97
2018-04-11T01:30:18.718Z,3.33
2018-04-11T01:32:46.162Z,3.10
2018-04-11T01:35:13.671Z,3.80
2018-04-11T01:37:41.133Z,3.27
2018-04-11T01:40:08.574Z,3.33
2018-04-11T01:42:36.074Z,2.87
2018-04-11T01:45:03.543Z,3.80
2018-04-11T01:47:31.013Z,4.60
2018-04-11T01:49:58.451Z,3.90
2018-04-11T01:52:25.947Z,3.40
2018-04-11T01:54:53.396Z,4.03
2018-04-11T01:57:20.835Z,3.80
2018-04-11T01:59:48.286Z,3.20
2018-04-11T02:02:15.747Z,2.87
2018-04-11T02:04:43.195Z,4.00
2018-04-11T02:07:10.659Z,3.53
2018-04-11T02:09:38.171Z,3.80
2018-04-11T02:12:05.565Z,3.40
2018-04-11T02:14:33.023Z,4.23
2018-04-11T02:17:00.462Z,3.23
2018-04-11T02:19:27.915Z,3.53
2018-04-11T02:21:55.383Z,3.40
2018-04-11T02:24:22.840Z,3.50
2018-04-11T02:26:50.278Z,3.40
2018-04-11T02:29:17.734Z,3.70
2018-04-11T02:31:45.197Z,3.63
2018-04-11T02:34:12.636Z,2.07
2018-04-11T02:36:40.089Z,3.77
2018-04-11T02:39:07.528Z,3.67
2018-04-11T02:41:35.025Z,3.43
2018-04-11T02:44:02.457Z,3.23
2018-04-11T02:46:29.918Z,4.10
2018-04-11T02:49:04.676Z,2.73
2018-04-11T02:51:32.134Z,3.23
2018-04-11T02:53:59.572Z,3.73
2018-04-11T02:56:27.032Z,3.27
2018-04-11T02:58:54.481Z,4.63
2018-04-11T03:01:21.976Z,3.70
2018-04-11T03:03:49.423Z,3.30
2018-04-11T03:06:16.872Z,3.97
2018-04-11T03:08:44.325Z,3.07
2018-04-11T03:11:11.801Z,4.63
2018-04-11T03:13:39.263Z,3.60
2018-04-11T03:16:06.711Z,4.43
2018-04-11T03:21:06.439Z,4.47
2018-04-11T03:23:33.892Z,3.80
2018-04-11T03:26:01.337Z,4.87
2018-04-11T03:28:28.775Z,6.60
2018-04-11T03:30:56.248Z,3.97
2018-04-11T03:33:23.681Z,5.70
2018-04-11T03:35:51.145Z,5.03
2018-04-11T03:38:18.583Z,5.23
2018-04-11T03:40:46.075Z,5.07
2018-04-11T03:43:13.555Z,5.53
2018-04-11T03:45:41.016Z,4.67
2018-04-11T03:48:08.477Z,4.90
2018-04-11T03:50:35.940Z,4.80
2018-04-11T03:53:03.402Z,4.10
2018-04-11T03:55:30.848Z,5.10
2018-04-11T03:57:58.287Z,6.10
2018-04-11T04:00:25.749Z,5.43
2018-04-11T04:02:53.204Z,4.90
2018-04-11T04:05:20.648Z,5.80
2018-04-11T04:07:48.173Z,4.77
2018-04-11T04:10:15.578Z,5.10
2018-04-11T04:12:43.014Z,6.43
2018-04-11T04:15:22.278Z,5.60
2018-04-11T04:18:01.600Z,4.97
2018-04-11T04:20:35.841Z,4.67
2018-04-11T04:23:03.276Z,5.77
2018-04-11T04:25:30.715Z,5.00
2018-04-11T04:27:58.175Z,4.20
2018-04-11T04:30:25.614Z,3.77
2018-04-11T04:32:53.063Z,4.73
2018-04-11T04:35:20.516Z,4.83
2018-04-11T04:37:47.960Z,4.50
2018-04-11T04:40:15.412Z,5.57
2018-04-11T04:42:42.854Z,2.90
2018-04-11T04:45:10.292Z,3.30
2018-04-11T04:47:39.227Z,3.50
2018-04-11T04:50:06.676Z,3.43
2018-04-11T04:52:34.191Z,4.77
2018-04-11T04:55:01.868Z,3.83
2018-04-11T04:57:29.323Z,5.40
2018-04-11T04:59:56.761Z,3.80
2018-04-11T05:02:24.204Z,3.43
2018-04-11T05:04:51.660Z,3.87
2018-04-11T05:07:19.100Z,3.60
2018-04-11T05:09:46.541Z,4.63
2018-04-11T05:12:14.018Z,3.70
2018-04-11T05:14:41.451Z,3.37
2018-04-11T05:17:08.896Z,3.90
2018-04-11T05:19:36.359Z,5.30
2018-04-11T05:22:03.838Z,4.63
2018-04-11T05:24:31.288Z,5.37
2018-04-11T05:26:58.743Z,3.73
2018-04-11T05:29:26.188Z,4.33
2018-04-11T05:31:53.632Z,3.63
2018-04-11T05:34:21.084Z,3.60
2018-04-11T05:36:48.548Z,4.10
2018-04-11T05:39:15.988Z,3.97
2018-04-11T05:41:44.216Z,2.90
2018-04-11T05:44:11.648Z,3.33
2018-04-11T05:46:39.087Z,3.47
2018-04-11T05:49:06.549Z,3.17
2018-04-11T05:51:34.787Z,4.53
2018-04-11T05:54:02.263Z,3.90
2018-04-11T05:56:29.720Z,5.27
2018-04-11T05:58:57.174Z,3.50
2018-04-11T06:01:24.620Z,3.60
2018-04-11T06:03:52.092Z,4.07
2018-04-11T06:06:19.539Z,3.40
2018-04-11T06:08:49.372Z,3.23
2018-04-11T06:11:16.852Z,3.37
2018-04-11T06:13:44.283Z,3.30
2018-04-11T06:16:11.766Z,2.90
2018-04-11T06:18:40.334Z,3.77
2018-04-11T06:21:09.288Z,3.77
2018-04-11T06:23:36.719Z,3.57
2018-04-11T06:26:04.176Z,3.60
2018-04-11T06:28:31.616Z,3.43
2018-04-11T06:30:59.190Z,4.93
2018-04-11T06:33:26.652Z,4.83
2018-04-11T06:35:54.091Z,5.33
2018-04-11T06:38:21.523Z,4.67
2018-04-11T06:40:48.975Z,5.83
2018-04-11T06:43:17.195Z,5.37
2018-04-11T06:45:44.631Z,5.00
2018-04-11T06:48:12.109Z,4.10
2018-04-11T06:50:39.539Z,3.60
2018-04-11T06:53:06.988Z,4.87
2018-04-11T06:55:34.440Z,4.97
2018-04-11T06:58:02.006Z,4.53
2018-04-11T07:00:29.491Z,5.00
2018-04-11T07:02:56.972Z,3.93
2018-04-11T07:05:24.404Z,4.40
2018-04-11T07:07:51.847Z,3.70
2018-04-11T07:10:19.300Z,4.40
2018-04-11T07:12:46.883Z,5.03
2018-04-11T07:15:14.492Z,3.37
2018-04-11T07:17:41.943Z,4.00
2018-04-11T07:20:09.647Z,4.40
2018-04-11T07:22:37.103Z,4.60
2018-04-11T07:25:04.544Z,4.50
2018-04-11T07:27:31.971Z,3.30
2018-04-11T07:29:59.423Z,4.77
2018-04-11T07:32:26.863Z,3.60
2018-04-11T07:34:54.329Z,4.60
2018-04-11T07:37:21.967Z,3.93
2018-04-11T07:39:49.426Z,4.37
2018-04-11T07:42:16.881Z,3.60
2018-04-11T07:44:44.315Z,4.13
2018-04-11T07:47:11.837Z,3.77
2018-04-11T07:49:39.300Z,4.90
2018-04-11T07:52:06.734Z,4.17
2018-04-11T07:54:34.205Z,5.57
2018-04-11T07:57:01.634Z,5.30
2018-04-11T07:59:29.076Z,5.03
2018-04-11T08:01:56.511Z,3.70
2018-04-11T08:04:23.958Z,3.73
2018-04-11T08:06:52.216Z,3.63
2018-04-11T08:09:19.650Z,3.30
2018-04-11T08:11:47.121Z,3.80
2018-04-11T08:14:14.565Z,4.13
2018-04-11T08:16:42.012Z,3.80
2018-04-11T08:19:09.472Z,4.80
2018-04-11T08:21:36.916Z,3.80
2018-04-11T08:24:03.888Z,4.27
2018-04-11T08:26:31.322Z,3.33
2018-04-11T08:28:58.751Z,3.83
2018-04-11T08:31:26.246Z,3.60
2018-04-11T08:33:53.691Z,2.80
2018-04-11T08:36:21.147Z,3.60
2018-04-11T08:38:48.583Z,2.80
2018-04-11T08:41:16.044Z,4.57
2018-04-11T08:43:43.499Z,3.00
2018-04-11T08:46:10.937Z,2.60
2018-04-11T08:48:39.815Z,2.63
2018-04-11T08:51:07.246Z,2.73
2018-04-11T08:53:34.676Z,2.37
2018-04-11T08:56:02.133Z,2.13
2018-04-11T08:58:29.570Z,2.80
2018-04-11T09:00:57.024Z,3.10
2018-04-11T09:03:24.857Z,3.07
2018-04-11T09:05:52.594Z,3.27
2018-04-11T09:08:20.043Z,3.60
2018-04-11T09:10:47.495Z,2.63
2018-04-11T09:13:14.951Z,2.67
2018-04-11T09:15:43.155Z,3.23
2018-04-11T09:18:10.583Z,2.93
2018-04-11T09:20:38.041Z,3.00
2018-04-11T09:23:05.471Z,3.27
2018-04-11T09:25:32.928Z,4.10
2018-04-11T09:28:00.372Z,3.37
2018-04-11T09:30:27.810Z,3.33
2018-04-11T09:32:55.321Z,2.43
2018-04-11T09:35:22.762Z,3.00
2018-04-11T09:37:50.217Z,2.80
2018-04-11T09:40:21.580Z,3.80
2018-04-11T09:42:49.010Z,2.80
2018-04-11T09:45:16.457Z,2.70
2018-04-11T09:47:44.662Z,2.93
2018-04-11T09:50:12.107Z,2.70
2018-04-11T09:52:39.542Z,2.77
2018-04-11T09:55:06.975Z,3.10
2018-04-11T09:57:34.441Z,3.00
2018-04-11T10:00:01.873Z,2.77
2018-04-11T10:02:29.313Z,2.83
2018-04-11T10:04:56.995Z,2.23
2018-04-11T10:07:24.440Z,3.57
2018-04-11T10:09:51.888Z,2.70
2018-04-11T10:12:19.693Z,3.00
2018-04-11T10:14:47.133Z,2.23
2018-04-11T10:17:14.619Z,1.73
2018-04-11T10:19:42.062Z,2.33
2018-04-11T10:22:09.521Z,2.47
2018-04-11T10:24:36.956Z,2.90
2018-04-11T10:27:05.165Z,2.47
2018-04-11T10:29:32.959Z,2.63
2018-04-11T10:32:00.620Z,3.17
2018-04-11T10:34:28.063Z,2.17
2018-04-11T10:36:55.516Z,2.60
2018-04-11T10:39:22.942Z,2.30
2018-04-11T10:41:50.884Z,2.40
2018-04-11T10:44:18.323Z,3.30
2018-04-11T10:46:46.065Z,2.57
2018-04-11T10:49:13.496Z,3.00
2018-04-11T10:51:41.064Z,3.20
2018-04-11T10:54:08.520Z,3.20
2018-04-11T10:56:35.955Z,3.00
2018-04-11T10:59:03.413Z,2.83
2018-04-11T11:01:30.868Z,2.37
2018-04-11T11:03:58.327Z,3.00
2018-04-11T11:06:25.994Z,3.43
2018-04-11T11:08:53.572Z,2.87
2018-04-11T11:11:21.036Z,3.13
2018-04-11T11:13:48.499Z,2.20
2018-04-11T11:16:15.955Z,2.23
2018-04-11T11:18:46.836Z,2.70
2018-04-11T11:21:14.533Z,2.40
2018-04-11T11:23:42.324Z,2.00
2018-04-11T11:26:09.762Z,2.03
2018-04-11T11:28:37.201Z,2.20
2018-04-11T11:31:04.739Z,3.10
2018-04-11T11:33:32.175Z,2.23
2018-04-11T11:35:59.615Z,2.30
2018-04-11T11:38:27.059Z,2.00
2018-04-11T11:40:54.521Z,2.40
2018-04-11T11:43:21.964Z,2.27
2018-04-11T11:45:49.711Z,2.33
2018-04-11T11:48:17.160Z,2.53
2018-04-11T11:50:44.601Z,2.07
2018-04-11T11:53:12.037Z,2.30
2018-04-11T11:55:39.488Z,3.10
2018-04-11T11:58:07.013Z,2.30
2018-04-11T12:00:34.459Z,1.97
2018-04-11T12:03:01.891Z,2.80
2018-04-11T12:05:29.344Z,2.67
2018-04-11T12:07:56.932Z,2.50
2018-04-11T12:10:24.379Z,2.67
2018-04-11T12:12:51.835Z,2.43
2018-04-11T12:15:19.611Z,2.47
2018-04-11T12:17:47.220Z,2.47
2018-04-11T12:20:14.832Z,2.10
2018-04-11T12:22:42.251Z,2.37
2018-04-11T12:25:09.858Z,2.40
2018-04-11T12:27:37.248Z,1.93
2018-04-11T12:30:04.713Z,2.17
2018-04-11T12:32:32.248Z,2.13
2018-04-11T12:34:59.705Z,2.70
2018-04-11T12:37:27.188Z,2.60
2018-04-11T12:39:54.766Z,1.77
2018-04-11T12:42:22.199Z,3.20
2018-04-11T12:44:49.650Z,2.63
2018-04-11T12:47:17.088Z,2.50
2018-04-11T12:49:44.733Z,2.43
2018-04-11T12:52:12.560Z,2.30
2018-04-11T12:54:39.993Z,2.83
2018-04-11T12:57:07.443Z,2.37
2018-04-11T12:59:35.648Z,1.87
2018-04-11T13:02:03.109Z,2.77
2018-04-11T13:04:30.551Z,1.83
2018-04-11T13:06:58.182Z,1.77
2018-04-11T13:09:26.402Z,1.50
2018-04-11T13:11:56.724Z,1.50
2018-04-11T13:14:24.238Z,1.90
2018-04-11T13:16:51.695Z,1.90
2018-04-11T13:19:19.257Z,1.80
2018-04-11T13:21:46.710Z,2.10
2018-04-11T13:24:14.147Z,2.03
2018-04-11T13:26:41.578Z,1.67
2018-04-11T13:29:09.046Z,1.50
2018-04-11T13:31:36.903Z,2.20
2018-04-11T13:34:04.324Z,1.53
2018-04-11T13:36:36.783Z,0.93
2018-04-11T13:39:04.237Z,1.20
2018-04-11T13:41:31.758Z,1.37
2018-04-11T13:43:59.198Z,1.07
2018-04-11T13:46:26.657Z,0.90
2018-04-11T13:48:54.365Z,0.93
2018-04-11T13:51:22.589Z,1.17
2018-04-11T13:53:50.025Z,1.27
2018-04-11T13:56:17.738Z,1.27
2018-04-11T13:58:45.200Z,1.77
2018-04-11T14:01:12.652Z,1.00
2018-04-11T14:03:40.647Z,1.40
2018-04-11T14:06:08.069Z,1.60
2018-04-11T14:08:35.498Z,1.77
2018-04-11T14:11:02.964Z,1.20
2018-04-11T14:13:30.392Z,1.00
2018-04-11T14:15:58.161Z,1.20
2018-04-11T14:18:25.804Z,1.20
2018-04-11T14:20:53.246Z,1.30
2018-04-11T14:23:21.031Z,1.50
2018-04-11T14:25:48.483Z,1.77
2018-04-11T14:28:15.943Z,1.90
2018-04-11T14:30:43.427Z,1.50
2018-04-11T14:33:10.873Z,1.90
2018-04-11T14:35:38.311Z,1.80
2018-04-11T14:38:05.748Z,2.70
2018-04-11T14:40:33.193Z,2.47
2018-04-11T14:43:00.641Z,2.90
2018-04-11T14:45:28.082Z,2.20
2018-04-11T14:47:55.547Z,3.07
2018-04-11T14:50:22.974Z,1.80
2018-04-11T14:52:50.684Z,2.17
2018-04-11T14:55:18.140Z,1.77
2018-04-11T14:57:45.573Z,1.90
2018-04-11T15:00:13.459Z,1.57
2018-04-11T15:02:40.931Z,1.97
2018-04-11T15:05:08.475Z,2.40
2018-04-11T15:07:36.020Z,2.30
2018-04-11T15:10:03.463Z,2.40
2018-04-11T15:12:30.920Z,2.37
2018-04-11T15:14:58.596Z,1.63
2018-04-11T15:17:26.133Z,1.80
2018-04-11T15:19:53.567Z,1.73
2018-04-11T15:22:21.049Z,2.00
2018-04-11T15:24:48.495Z,2.20
2018-04-11T15:27:15.940Z,1.87
2018-04-11T15:29:43.436Z,2.27
2018-04-11T15:32:11.268Z,2.40
2018-04-11T15:34:39.137Z,2.37
2018-04-11T15:37:06.605Z,1.90
2018-04-11T15:39:34.050Z,1.83
2018-04-11T15:42:01.521Z,1.83
2018-04-11T15:44:29.184Z,2.07
2018-04-11T15:46:56.616Z,2.00
2018-04-11T15:49:24.059Z,2.10
2018-04-11T15:51:51.491Z,2.40
2018-04-11T15:54:18.940Z,2.77
2018-04-11T15:56:46.595Z,2.97
2018-04-11T15:59:14.043Z,3.30
2018-04-11T16:01:41.485Z,2.37
2018-04-11T16:04:08.927Z,3.00
2018-04-11T16:06:36.375Z,3.50
2018-04-11T16:09:04.589Z,2.83
2018-04-11T16:11:32.034Z,2.67
2018-04-11T16:14:00.319Z,2.70
2018-04-11T16:16:28.524Z,3.10
2018-04-11T16:18:56.014Z,2.40
2018-04-11T16:21:23.462Z,2.27
2018-04-11T16:23:50.977Z,2.47
2018-04-11T16:26:19.203Z,2.53
2018-04-11T16:28:46.981Z,3.03
2018-04-11T16:31:14.499Z,2.37
2018-04-11T16:33:44.177Z,2.83
2018-04-11T16:36:11.613Z,2.07
2018-04-11T16:38:39.099Z,2.63
2018-04-11T16:41:06.624Z,2.70
2018-04-11T16:43:34.096Z,2.20
2018-04-11T16:46:01.541Z,2.60
2018-04-11T16:48:29.032Z,2.57
2018-04-11T16:50:56.479Z,2.63
2018-04-11T16:53:23.922Z,2.60
2018-04-11T16:55:51.382Z,3.13
2018-04-11T16:58:18.834Z,2.73
2018-04-11T17:00:46.267Z,2.67
2018-04-11T17:03:13.720Z,2.23
2018-04-11T17:05:41.160Z,2.77
2018-04-11T17:08:08.595Z,2.60
2018-04-11T17:10:36.035Z,1.93
2018-04-11T17:13:03.637Z,3.37
2018-04-11T17:15:31.090Z,2.83
2018-04-11T17:17:58.532Z,2.53
2018-04-11T17:20:38.003Z,2.23
2018-04-11T17:23:17.230Z,2.60
2018-04-11T17:25:56.495Z,2.20
2018-04-11T17:28:35.804Z,2.37
2018-04-11T17:31:26.927Z,2.77
2018-04-11T17:33:54.356Z,1.97
2018-04-11T17:36:21.816Z,3.13
2018-04-11T17:38:49.342Z,2.53
2018-04-11T17:41:16.790Z,2.33
2018-04-11T17:43:44.229Z,2.70
2018-04-11T17:46:11.668Z,2.53
2018-04-11T17:48:46.804Z,2.87
2018-04-11T17:51:14.250Z,2.20
2018-04-11T17:53:41.685Z,1.90
2018-04-11T17:56:09.133Z,3.27
2018-04-11T17:58:36.807Z,2.20
2018-04-11T18:01:04.279Z,2.43
2018-04-11T18:03:31.745Z,2.47
2018-04-11T18:05:59.198Z,2.23
2018-04-11T18:08:26.684Z,2.87
2018-04-11T18:10:54.095Z,2.70
2018-04-11T18:13:21.545Z,2.03
2018-04-11T18:15:48.979Z,2.70
2018-04-11T18:18:17.192Z,3.43
2018-04-11T18:20:44.940Z,2.67
2018-04-11T18:23:12.388Z,2.70
2018-04-11T18:25:39.842Z,3.70
2018-04-11T18:28:07.279Z,3.17
2018-04-11T18:30:34.722Z,2.70
2018-04-11T18:33:02.201Z,2.70
2018-04-11T18:35:29.620Z,3.00
2018-04-11T18:37:57.360Z,2.50
2018-04-11T18:40:24.808Z,3.10
2018-04-11T18:42:52.240Z,3.27
2018-04-11T18:45:19.675Z,3.03
2018-04-11T18:47:47.278Z,3.30
2018-04-11T18:50:14.739Z,3.30
2018-04-11T18:52:42.165Z,2.53
2018-04-11T18:55:09.869Z,2.93
2018-04-11T18:57:37.384Z,3.23
2018-04-11T19:00:04.828Z,2.93
2018-04-11T19:02:32.317Z,3.27
2018-04-11T19:05:00.003Z,3.00
2018-04-11T19:07:27.515Z,3.67
2018-04-11T19:09:54.917Z,2.80
2018-04-11T19:12:23.201Z,3.00
2018-04-11T19:14:50.636Z,4.07
2018-04-11T19:17:18.140Z,2.37
2018-04-11T19:19:45.684Z,2.53
2018-04-11T19:22:13.133Z,2.97
2018-04-11T19:24:40.633Z,3.10
2018-04-11T19:27:08.082Z,2.83
2018-04-11T19:29:35.536Z,2.87
2018-04-11T19:32:03.001Z,2.97
2018-04-11T19:34:30.435Z,3.23
2018-04-11T19:36:57.895Z,2.60
2018-04-11T19:39:25.361Z,3.27
2018-04-11T19:41:53.065Z,3.70
2018-04-11T19:44:20.564Z,2.40
2018-04-11T19:46:47.964Z,3.63
2018-04-11T19:49:15.407Z,3.17
2018-04-11T19:51:42.874Z,3.40
2018-04-11T19:54:10.564Z,3.30
2018-04-11T19:56:38.020Z,2.60
2018-04-11T19:59:05.473Z,2.63
2018-04-11T20:01:32.923Z,3.20
2018-04-11T20:04:00.405Z,2.80
2018-04-11T20:06:27.840Z,2.23
2018-04-11T20:08:55.304Z,3.17
2018-04-11T20:11:22.761Z,2.73
2018-04-11T20:13:50.196Z,2.37
2018-04-11T20:16:17.640Z,2.10
2018-04-11T20:18:46.148Z,2.47
2018-04-11T20:21:13.585Z,2.80
2018-04-11T20:23:41.036Z,2.13
2018-04-11T20:26:08.476Z,2.40
2018-04-11T20:28:35.936Z,2.97
2018-04-11T20:31:03.558Z,2.87
2018-04-11T20:33:30.997Z,2.30
2018-04-11T20:35:59.229Z,2.03
2018-04-11T20:38:26.660Z,2.70
2018-04-11T20:40:54.104Z,2.60
2018-04-11T20:43:21.547Z,2.27
2018-04-11T20:45:48.991Z,2.47
2018-04-11T20:48:16.479Z,2.73
2018-04-11T20:50:43.907Z,2.00
2018-04-11T20:53:11.604Z,2.93
2018-04-11T20:55:39.038Z,2.40
2018-04-11T20:58:06.661Z,2.20
2018-04-11T21:00:34.075Z,2.53
2018-04-11T21:03:01.508Z,2.53
2018-04-11T21:05:28.994Z,1.90
2018-04-11T21:07:56.431Z,1.67
2018-04-11T21:10:23.873Z,2.40
2018-04-11T21:12:51.321Z,2.00
2018-04-11T21:15:18.776Z,2.17
2018-04-11T21:17:46.220Z,2.30
2018-04-11T21:20:14.432Z,2.80
2018-04-11T21:22:41.860Z,2.03
2018-04-11T21:25:09.307Z,2.03
2018-04-11T21:27:36.823Z,1.93
2018-04-11T21:30:04.203Z,2.73
2018-04-11T21:32:31.643Z,2.30
2018-04-11T21:34:59.079Z,1.93
2018-04-11T21:37:26.530Z,1.67
2018-04-11T21:39:53.956Z,1.47
2018-04-11T21:42:21.509Z,1.53
2018-04-11T21:44:49.067Z,1.97
2018-04-11T21:47:16.510Z,1.67
2018-04-11T21:49:44.107Z,2.77
2018-04-11T21:52:11.540Z,1.40
2018-04-11T21:54:38.994Z,1.83
2018-04-11T21:57:06.425Z,1.67
2018-04-11T21:59:33.972Z,1.47
2018-04-11T22:02:01.443Z,2.00
2018-04-11T22:04:28.872Z,1.30
2018-04-11T22:06:56.431Z,1.63
2018-04-11T22:09:23.880Z,1.50
2018-04-11T22:11:51.327Z,1.90
2018-04-11T22:14:19.045Z,2.37
2018-04-11T22:16:46.487Z,1.30
2018-04-11T22:19:13.950Z,1.60
2018-04-11T22:21:41.401Z,1.27
2018-04-11T22:24:08.838Z,1.73
2018-04-11T22:26:36.301Z,1.80
2018-04-11T22:29:03.743Z,1.40
2018-04-11T22:31:31.224Z,1.73
2018-04-11T22:33:58.686Z,1.90
2018-04-11T22:36:26.110Z,1.40
2018-04-11T22:38:53.563Z,1.50
2018-04-11T22:41:21.016Z,1.50
2018-04-11T22:43:48.472Z,2.30
2018-04-11T22:46:15.919Z,2.20
2018-04-11T22:48:46.727Z,2.37
2018-04-11T22:51:14.173Z,1.50
2018-04-11T22:53:41.599Z,2.20
2018-04-11T22:56:09.049Z,2.17
2018-04-11T22:58:36.488Z,2.27
2018-04-11T23:01:03.917Z,2.03
2018-04-11T23:03:31.376Z,1.70
2018-04-11T23:05:58.837Z,2.23
2018-04-11T23:08:26.294Z,3.53
2018-04-11T23:10:54.491Z,2.23
2018-04-11T23:13:21.923Z,2.30
2018-04-11T23:15:49.387Z,2.40
2018-04-11T23:18:16.824Z,2.47
2018-04-11T23:20:45.039Z,1.70
2018-04-11T23:23:12.535Z,3.00
2018-04-11T23:25:39.959Z,1.77
2018-04-11T23:28:07.420Z,2.60
2018-04-11T23:30:34.856Z,3.87
2018-04-11T23:33:02.346Z,2.73
2018-04-11T23:35:29.779Z,3.73
2018-04-11T23:37:57.216Z,3.20
2018-04-11T23:40:24.663Z,3.77
2018-04-11T23:42:52.107Z,3.47
2018-04-11T23:45:19.568Z,3.70
2018-04-11T23:47:47.004Z,3.23
2018-04-11T23:50:14.477Z,3.17
2018-04-11T23:52:42.004Z,4.57
2018-04-11T23:55:09.440Z,3.73
2018-04-11T23:57:36.887Z,3.47
